OIII METAR and TAF | Updated Today

OIII METAR

Mehrabad International Airport

Observation time: 28 min. ago

OIII 292130Z 36006KT CAVOK 26/M06 Q1015 A2998

Need help? Read our tutorial on how to read METARs or read the parsed version below.

Mehrabad International Airport (OIII) METAR

  • Weather conditions on Thu, 29 Sep 2022 21:30:00 +0000 (28 min. ago):
  • Present conditions: Dry
  • Clouds: Clear skies
  • Visibility: Greater than 10 km
  • Wind: 360 degrees at 6 knots
  • Temperature: 26 celsius
  • Dew point: -6 celsius
  • Pressure: 1015 millibars
  • Remarks: None


Useful to know...

OIII TAF

Mehrabad International Airport

TAF OIII 291730Z 2918/3024 34008KT 7000 NSC BECMG 3005/3007 20008KT TEMPO 3009/3015 24012KT BECMG 3016/3018 34008KT
Observation time: 4:28 hr. ago
Need help? Read our tutorial on how to read TAFs or read the parsed version below.

Parsed version of TAF for Mehrabad International Airport (OIII)

  • From 29 September at 18:00 UTC, to day 30 of the month at 24:00 UTC
  • Clouds: No significant clouds are observed
  • Visibility: 7000 meters
  • Wind: 340 degrees at 8
  • Expected to arise soon, from 30 September at 05:00 UTC, to day 30 of the month at 07:00 UTC
  • Wind: 200 degrees at 8
  • Expected to arise temporarily, from 30 September at 09:00 UTC, to day 30 of the month at 15:00 UTC
  • Wind: 240 degrees at 12
  • Expected to arise soon, from 30 September at 16:00 UTC, to day 30 of the month at 18:00 UTC
  • Wind: 340 degrees at 8